Time;durP1;ratioP1;P1;durP2;ratioP2;P2;SDS_P1;SDS_P2;PMS_P1;PMS_P2;Temp;Humidity;BMP_temperature;BMP_pressure;BME280_temperature;BME280_humidity;BME280_pressure;Samples;Min_cycle;Max_cycle;Signal;HPM_P1;HPM_P2
2023/09/13 00:00:57;;;;;;;;;;;19.90;84.80;;;;;;5026019;28;20012;-66
2023/09/13 00:03:31;;;;;;;;;;;19.90;84.70;;;;;;5025479;28;19933;-66
2023/09/13 00:06:04;;;;;;;;;;;19.90;84.70;;;;;;5024424;28;20016;-66
2023/09/13 00:08:38;;;;;;;;;;;19.90;84.70;;;;;;5025575;28;19975;-66
2023/09/13 00:11:11;;;;;;;;;;;19.90;84.60;;;;;;5023258;28;19929;-66
2023/09/13 00:13:38;;;;;;;;;;;19.80;84.60;;;;;;5025421;28;19926;-66
2023/09/13 00:16:12;;;;;;;;;;;19.80;84.60;;;;;;5023294;28;19970;-67
2023/09/13 00:18:46;;;;;;;;;;;19.80;84.60;;;;;;5020424;28;20022;-66
2023/09/13 00:21:20;;;;;;;;;;;19.70;84.70;;;;;;5024013;28;19934;-71
2023/09/13 00:23:53;;;;;;;;;;;19.70;84.70;;;;;;5024296;28;20392;-69
2023/09/13 00:26:26;;;;;;;;;;;19.70;84.80;;;;;;5024003;28;19979;-69
2023/09/13 00:28:59;;;;;;;;;;;19.70;84.70;;;;;;5028211;28;20383;-69
2023/09/13 00:31:33;;;;;;;;;;;19.70;84.80;;;;;;5025325;28;19925;-70
2023/09/13 00:34:08;;;;;;;;;;;19.60;84.80;;;;;;5023851;28;19929;-71
2023/09/13 00:36:42;;;;;;;;;;;19.60;84.80;;;;;;5023972;28;19926;-69
2023/09/13 00:39:15;;;;;;;;;;;19.60;84.60;;;;;;5024661;28;19932;-71
2023/09/13 00:41:49;;;;;;;;;;;19.60;84.50;;;;;;5023227;28;19925;-70
2023/09/13 00:44:22;;;;;;;;;;;19.60;84.60;;;;;;5026065;28;20040;-70
2023/09/13 00:46:57;;;;;;;;;;;19.60;84.60;;;;;;5023810;28;20305;-71
2023/09/13 00:49:23;;;;;;;;;;;19.50;84.70;;;;;;5012489;28;19925;-70
2023/09/13 00:51:58;;;;;;;;;;;19.50;84.80;;;;;;5008928;28;19929;-70
2023/09/13 00:54:31;;;;;;;;;;;19.50;84.70;;;;;;5024518;28;19933;-70
2023/09/13 00:57:04;;;;;;;;;;;19.40;84.80;;;;;;5013185;28;19979;-70
2023/09/13 00:59:37;;;;;;;;;;;19.40;84.80;;;;;;5026979;28;19925;-70
2023/09/13 01:02:13;;;;;;;;;;;19.40;84.80;;;;;;5023783;28;19925;-70
2023/09/13 01:04:46;;;;;;;;;;;19.40;84.80;;;;;;5024806;28;19936;-70
2023/09/13 01:07:19;;;;;;;;;;;19.40;84.90;;;;;;5025922;28;19931;-69
2023/09/13 01:09:46;;;;;;;;;;;19.40;85.00;;;;;;5024794;28;20040;-69
2023/09/13 01:12:22;;;;;;;;;;;19.30;85.20;;;;;;5024314;28;19968;-69
2023/09/13 01:14:55;;;;;;;;;;;19.30;85.20;;;;;;5024507;28;19971;-70
2023/09/13 01:17:34;;;;;;;;;;;19.30;85.40;;;;;;5026661;28;19932;-70
2023/09/13 01:20:10;;;;;;;;;;;19.30;85.40;;;;;;5024363;28;19926;-70
2023/09/13 01:23:02;;;;;;;;;;;19.30;85.40;;;;;;5024167;28;19936;-70
2023/09/13 01:25:48;;;;;;;;;;;19.40;85.50;;;;;;5023574;28;19929;-72
2023/09/13 01:28:36;;;;;;;;;;;19.30;85.60;;;;;;5003447;28;19933;-71
2023/09/13 01:31:10;;;;;;;;;;;19.30;85.40;;;;;;5022199;28;19931;-69
2023/09/13 01:33:44;;;;;;;;;;;19.40;85.30;;;;;;5023676;28;19947;-69
2023/09/13 01:36:17;;;;;;;;;;;19.40;85.20;;;;;;5023400;28;19964;-68
2023/09/13 01:38:50;;;;;;;;;;;19.40;85.30;;;;;;5006274;28;19929;-68
2023/09/13 01:41:25;;;;;;;;;;;19.30;85.50;;;;;;5024410;28;20380;-70
2023/09/13 01:44:00;;;;;;;;;;;19.40;85.30;;;;;;5024718;28;19925;-70
2023/09/13 01:46:35;;;;;;;;;;;19.40;85.40;;;;;;5024021;28;19933;-69
2023/09/13 01:49:18;;;;;;;;;;;19.40;85.40;;;;;;5022834;28;20435;-68
2023/09/13 01:51:51;;;;;;;;;;;19.40;85.50;;;;;;5011063;28;19925;-69
2023/09/13 01:54:24;;;;;;;;;;;19.40;85.50;;;;;;5023825;28;19925;-70
2023/09/13 01:56:58;;;;;;;;;;;19.40;85.40;;;;;;5006222;28;19998;-70
2023/09/13 01:59:33;;;;;;;;;;;19.30;85.50;;;;;;5021316;28;20010;-70
2023/09/13 02:02:06;;;;;;;;;;;19.30;85.30;;;;;;5003653;28;20022;-69
2023/09/13 02:04:39;;;;;;;;;;;19.20;85.40;;;;;;5022991;28;19932;-69
2023/09/13 02:07:13;;;;;;;;;;;19.10;85.60;;;;;;5026306;28;20360;-70
2023/09/13 02:09:47;;;;;;;;;;;19.10;85.80;;;;;;5022009;28;19971;-69
2023/09/13 02:12:20;;;;;;;;;;;19.10;85.80;;;;;;5022018;28;20385;-69
2023/09/13 02:14:55;;;;;;;;;;;19.10;85.80;;;;;;5006277;28;19936;-70
2023/09/13 02:17:28;;;;;;;;;;;19.20;85.70;;;;;;5008119;28;19925;-69
2023/09/13 02:20:01;;;;;;;;;;;19.10;86.00;;;;;;5023113;28;19932;-70
2023/09/13 02:22:34;;;;;;;;;;;19.10;86.00;;;;;;5022008;28;20398;-69
2023/09/13 02:25:07;;;;;;;;;;;19.20;86.00;;;;;;5022391;28;20376;-68
2023/09/13 02:27:41;;;;;;;;;;;19.20;85.80;;;;;;5022020;28;19936;-69
2023/09/13 02:30:16;;;;;;;;;;;19.20;85.70;;;;;;5022155;28;19991;-69
2023/09/13 02:32:50;;;;;;;;;;;19.20;85.70;;;;;;5020471;28;20359;-69
2023/09/13 02:35:23;;;;;;;;;;;19.20;85.70;;;;;;5024230;28;19929;-70
2023/09/13 02:37:57;;;;;;;;;;;19.20;85.80;;;;;;5022708;28;20391;-69
2023/09/13 02:40:30;;;;;;;;;;;19.20;85.90;;;;;;5020662;28;20360;-70
2023/09/13 02:43:03;;;;;;;;;;;19.10;86.10;;;;;;5022261;28;20295;-70
2023/09/13 02:45:38;;;;;;;;;;;19.10;86.30;;;;;;5023417;28;19932;-70
2023/09/13 02:48:11;;;;;;;;;;;19.10;86.30;;;;;;5025865;28;20415;-70
2023/09/13 02:50:45;;;;;;;;;;;19.10;86.50;;;;;;5021677;28;19933;-71
2023/09/13 02:53:25;;;;;;;;;;;19.10;86.50;;;;;;5022467;28;19926;-71
2023/09/13 02:56:03;;;;;;;;;;;19.10;86.60;;;;;;5010235;28;19983;-71
2023/09/13 02:58:37;;;;;;;;;;;19.10;86.50;;;;;;5021676;28;19926;-71
2023/09/13 03:01:12;;;;;;;;;;;19.20;86.60;;;;;;5024657;28;19993;-70
2023/09/13 03:03:45;;;;;;;;;;;19.20;86.70;;;;;;5021304;28;19935;-70
2023/09/13 03:06:18;;;;;;;;;;;19.20;86.60;;;;;;5020738;28;20446;-71
2023/09/13 03:08:51;;;;;;;;;;;19.20;86.60;;;;;;5005465;28;19932;-71
2023/09/13 03:11:25;;;;;;;;;;;19.20;86.70;;;;;;5017624;28;20018;-71
2023/09/13 03:13:58;;;;;;;;;;;19.20;86.70;;;;;;5023351;28;19926;-70
2023/09/13 03:16:33;;;;;;;;;;;19.20;86.80;;;;;;5021824;28;19928;-69
2023/09/13 03:19:07;;;;;;;;;;;19.20;86.90;;;;;;5021752;28;20449;-71
2023/09/13 03:21:42;;;;;;;;;;;19.20;86.80;;;;;;5022637;28;20399;-70
2023/09/13 03:24:15;;;;;;;;;;;19.20;86.70;;;;;;5023222;28;19930;-71
2023/09/13 03:26:48;;;;;;;;;;;19.20;86.70;;;;;;5026369;28;19933;-70
2023/09/13 03:29:22;;;;;;;;;;;19.20;86.90;;;;;;5020843;28;20416;-70
2023/09/13 03:31:57;;;;;;;;;;;19.30;86.80;;;;;;5030098;28;19933;-68
2023/09/13 03:34:30;;;;;;;;;;;19.30;86.80;;;;;;5026066;28;19933;-70
2023/09/13 03:37:04;;;;;;;;;;;19.20;86.80;;;;;;5024130;28;19933;-71
2023/09/13 03:39:37;;;;;;;;;;;19.30;86.80;;;;;;5025177;28;19929;-70
2023/09/13 03:42:10;;;;;;;;;;;19.30;86.90;;;;;;5023831;28;19925;-70
2023/09/13 03:44:44;;;;;;;;;;;19.30;87.00;;;;;;5028893;28;20020;-70
2023/09/13 03:47:19;;;;;;;;;;;19.30;87.10;;;;;;5026214;28;19925;-70
2023/09/13 03:49:53;;;;;;;;;;;19.30;87.10;;;;;;5009593;28;19932;-70
2023/09/13 03:52:26;;;;;;;;;;;19.30;87.10;;;;;;5025505;28;19933;-69
2023/09/13 03:54:53;;;;;;;;;;;19.40;87.10;;;;;;5026352;28;19925;-72
2023/09/13 03:57:27;;;;;;;;;;;19.40;87.30;;;;;;5030036;28;19929;-70
2023/09/13 04:00:00;;;;;;;;;;;19.40;87.40;;;;;;5025202;28;19983;-72
2023/09/13 04:02:28;;;;;;;;;;;19.40;87.50;;;;;;5031271;28;19932;-70
2023/09/13 04:05:02;;;;;;;;;;;19.40;87.50;;;;;;5023684;28;19956;-71
2023/09/13 04:07:34;;;;;;;;;;;19.40;87.50;;;;;;5024371;28;19936;-72
2023/09/13 04:10:07;;;;;;;;;;;19.40;87.60;;;;;;5025221;28;19929;-72
2023/09/13 04:12:40;;;;;;;;;;;19.40;87.60;;;;;;5023985;28;19979;-72
2023/09/13 04:15:13;;;;;;;;;;;19.40;87.60;;;;;;5022461;28;19936;-72
2023/09/13 04:17:48;;;;;;;;;;;19.40;87.60;;;;;;5027989;28;19933;-72
2023/09/13 04:20:21;;;;;;;;;;;19.50;87.60;;;;;;5025688;28;19929;-72
2023/09/13 04:22:54;;;;;;;;;;;19.50;87.60;;;;;;5024116;28;19929;-72
2023/09/13 04:25:28;;;;;;;;;;;19.50;87.70;;;;;;5022568;28;19979;-72
2023/09/13 04:28:01;;;;;;;;;;;19.50;87.70;;;;;;5024099;28;19939;-73
2023/09/13 04:30:34;;;;;;;;;;;19.50;87.70;;;;;;5021897;28;20399;-71
2023/09/13 04:33:09;;;;;;;;;;;19.60;87.70;;;;;;5012005;28;19925;-72
2023/09/13 04:35:43;;;;;;;;;;;19.50;87.70;;;;;;5023846;28;19936;-71
2023/09/13 04:38:15;;;;;;;;;;;19.50;87.90;;;;;;5027225;28;19971;-73
2023/09/13 04:40:49;;;;;;;;;;;19.50;87.90;;;;;;5022281;28;19932;-72
2023/09/13 04:43:23;;;;;;;;;;;19.50;87.80;;;;;;5018796;28;19925;-72
2023/09/13 04:45:56;;;;;;;;;;;19.50;87.60;;;;;;5008750;28;19957;-72
2023/09/13 04:48:25;;;;;;;;;;;19.50;87.70;;;;;;5008191;28;19964;-72
2023/09/13 04:50:58;;;;;;;;;;;19.60;87.70;;;;;;5023585;28;19929;-72
2023/09/13 04:53:33;;;;;;;;;;;19.60;87.70;;;;;;5022997;28;20020;-72
2023/09/13 04:56:07;;;;;;;;;;;19.50;87.90;;;;;;5028067;28;20315;-71
2023/09/13 04:58:44;;;;;;;;;;;19.50;87.90;;;;;;5023859;28;19936;-73
2023/09/13 05:01:17;;;;;;;;;;;19.50;88.00;;;;;;5023317;28;19994;-66
2023/09/13 05:03:52;;;;;;;;;;;19.50;87.90;;;;;;5021861;28;20024;-66
2023/09/13 05:06:25;;;;;;;;;;;19.50;88.00;;;;;;5023955;28;19951;-67
2023/09/13 05:08:58;;;;;;;;;;;19.50;88.00;;;;;;5024512;28;19935;-66
2023/09/13 05:11:31;;;;;;;;;;;19.60;88.10;;;;;;5024004;28;19956;-65
2023/09/13 05:14:11;;;;;;;;;;;19.60;88.10;;;;;;5020610;28;19947;-66
2023/09/13 05:16:44;;;;;;;;;;;19.50;88.10;;;;;;5023657;28;19930;-65
2023/09/13 05:19:19;;;;;;;;;;;19.60;88.30;;;;;;5024021;28;19929;-65
2023/09/13 05:21:52;;;;;;;;;;;19.60;88.10;;;;;;5010635;28;19930;-65
2023/09/13 05:24:25;;;;;;;;;;;19.60;88.20;;;;;;5022488;28;19937;-65
2023/09/13 05:26:58;;;;;;;;;;;19.60;88.00;;;;;;5022540;28;19943;-66
2023/09/13 05:29:31;;;;;;;;;;;19.60;88.00;;;;;;5023070;28;19982;-66
2023/09/13 05:32:05;;;;;;;;;;;19.60;88.00;;;;;;5020977;28;19940;-66
2023/09/13 05:34:40;;;;;;;;;;;19.60;87.90;;;;;;5022819;28;19933;-65
2023/09/13 05:37:13;;;;;;;;;;;19.60;88.00;;;;;;5024559;28;19929;-66
2023/09/13 05:39:46;;;;;;;;;;;19.60;88.00;;;;;;5023530;28;20022;-66
2023/09/13 05:42:19;;;;;;;;;;;19.60;88.00;;;;;;5023625;28;19933;-67
2023/09/13 05:44:54;;;;;;;;;;;19.60;87.90;;;;;;5021325;28;19929;-66
2023/09/13 05:47:27;;;;;;;;;;;19.60;87.90;;;;;;5022830;28;19940;-66
2023/09/13 05:50:02;;;;;;;;;;;19.60;88.00;;;;;;5025430;28;19932;-66
2023/09/13 05:52:37;;;;;;;;;;;19.60;87.90;;;;;;5022226;28;20047;-65
2023/09/13 05:55:10;;;;;;;;;;;19.60;87.90;;;;;;5023659;28;19929;-65
2023/09/13 05:57:37;;;;;;;;;;;19.60;87.80;;;;;;5021194;28;19933;-66
2023/09/13 06:00:11;;;;;;;;;;;19.60;87.90;;;;;;5024297;28;19956;-66
2023/09/13 06:02:44;;;;;;;;;;;19.60;87.70;;;;;;5022878;28;19929;-66
2023/09/13 06:05:19;;;;;;;;;;;19.60;87.90;;;;;;5025523;28;19935;-66
2023/09/13 06:07:52;;;;;;;;;;;19.60;88.00;;;;;;5024252;28;19929;-66
2023/09/13 06:10:25;;;;;;;;;;;19.60;87.90;;;;;;5023769;28;19968;-66
2023/09/13 06:12:58;;;;;;;;;;;19.60;87.80;;;;;;5022234;28;19929;-72
2023/09/13 06:15:33;;;;;;;;;;;19.60;87.70;;;;;;5021371;28;19937;-72
2023/09/13 06:18:07;;;;;;;;;;;19.60;87.70;;;;;;5023332;28;19933;-75
2023/09/13 06:20:42;;;;;;;;;;;19.60;87.70;;;;;;5021354;28;19938;-72
2023/09/13 06:23:30;;;;;;;;;;;19.60;87.70;;;;;;5023508;28;21253;-73
2023/09/13 06:26:04;;;;;;;;;;;19.60;87.60;;;;;;5022446;28;19925;-75
2023/09/13 06:28:39;;;;;;;;;;;19.60;87.80;;;;;;5021248;28;19929;-75
2023/09/13 06:31:12;;;;;;;;;;;19.60;87.70;;;;;;5019372;28;19964;-73
2023/09/13 06:33:45;;;;;;;;;;;19.60;87.70;;;;;;5021237;28;20372;-73
2023/09/13 06:36:20;;;;;;;;;;;19.60;87.70;;;;;;5022979;28;19939;-73
2023/09/13 06:38:53;;;;;;;;;;;19.70;87.70;;;;;;5022031;28;19925;-73
2023/09/13 06:41:26;;;;;;;;;;;19.60;87.70;;;;;;5022039;28;20418;-72
2023/09/13 06:43:59;;;;;;;;;;;19.70;87.60;;;;;;5022904;28;19925;-72
2023/09/13 06:46:32;;;;;;;;;;;19.70;87.80;;;;;;5019605;28;19931;-74
2023/09/13 06:49:06;;;;;;;;;;;19.70;87.70;;;;;;5018932;28;19964;-72
2023/09/13 06:51:40;;;;;;;;;;;19.70;87.70;;;;;;5021927;28;19975;-73
2023/09/13 06:54:13;;;;;;;;;;;19.80;87.70;;;;;;5021393;28;19925;-71
2023/09/13 06:56:46;;;;;;;;;;;19.80;87.60;;;;;;5021868;28;19934;-74
2023/09/13 06:59:19;;;;;;;;;;;19.80;87.50;;;;;;5023244;28;19929;-72
2023/09/13 07:01:53;;;;;;;;;;;19.80;87.40;;;;;;5022527;28;19940;-73
2023/09/13 07:04:19;;;;;;;;;;;19.90;87.40;;;;;;5022170;28;19929;-73
2023/09/13 07:06:54;;;;;;;;;;;19.90;87.60;;;;;;5021326;28;19931;-74
2023/09/13 07:09:26;;;;;;;;;;;19.90;87.40;;;;;;5021308;28;19929;-72
2023/09/13 07:11:53;;;;;;;;;;;19.90;87.30;;;;;;5021858;28;19929;-73
2023/09/13 07:14:26;;;;;;;;;;;19.90;87.30;;;;;;5021682;28;20299;-72
2023/09/13 07:16:59;;;;;;;;;;;19.80;87.40;;;;;;5020453;28;20055;-71
2023/09/13 07:19:32;;;;;;;;;;;19.90;87.40;;;;;;5021605;28;19929;-73
2023/09/13 07:22:07;;;;;;;;;;;19.90;87.10;;;;;;5022209;28;19956;-66
2023/09/13 07:24:40;;;;;;;;;;;20.00;87.20;;;;;;5021167;28;20363;-66
2023/09/13 07:27:13;;;;;;;;;;;20.00;87.20;;;;;;5021996;28;20414;-66
2023/09/13 07:29:47;;;;;;;;;;;20.10;87.10;;;;;;5020343;28;19933;-66
2023/09/13 07:32:20;;;;;;;;;;;20.10;86.80;;;;;;5022305;28;19929;-65
2023/09/13 07:34:54;;;;;;;;;;;20.00;86.90;;;;;;5022429;28;20024;-66
2023/09/13 07:37:29;;;;;;;;;;;20.00;87.00;;;;;;5020633;28;19980;-66
2023/09/13 07:40:04;;;;;;;;;;;20.10;86.80;;;;;;5022030;28;19976;-65
2023/09/13 07:42:37;;;;;;;;;;;20.10;86.70;;;;;;5020790;28;19926;-65
2023/09/13 07:45:10;;;;;;;;;;;20.20;86.60;;;;;;5021127;28;20015;-66
2023/09/13 07:47:50;;;;;;;;;;;20.20;86.50;;;;;;5018663;28;20312;-66
2023/09/13 07:50:30;;;;;;;;;;;20.20;86.60;;;;;;5021110;28;19944;-66
2023/09/13 07:53:05;;;;;;;;;;;20.30;86.40;;;;;;5021920;28;19940;-66
2023/09/13 07:55:39;;;;;;;;;;;20.30;86.40;;;;;;5021779;28;19930;-66
2023/09/13 07:58:12;;;;;;;;;;;20.30;86.20;;;;;;5021918;28;19933;-66
2023/09/13 08:00:46;;;;;;;;;;;20.40;86.40;;;;;;5020819;28;20020;-72
2023/09/13 08:03:18;;;;;;;;;;;20.40;86.30;;;;;;5021174;28;19933;-73
2023/09/13 08:05:51;;;;;;;;;;;20.40;86.30;;;;;;5021137;28;19933;-73
2023/09/13 08:08:26;;;;;;;;;;;20.50;86.00;;;;;;5023757;28;20356;-73
2023/09/13 08:10:59;;;;;;;;;;;20.40;85.90;;;;;;5025548;28;19933;-72
2023/09/13 08:13:33;;;;;;;;;;;20.50;86.00;;;;;;5025559;28;19936;-73
2023/09/13 08:16:05;;;;;;;;;;;20.50;85.90;;;;;;5025354;28;19937;-72
2023/09/13 08:18:38;;;;;;;;;;;20.50;86.00;;;;;;5024902;28;20384;-73
2023/09/13 08:21:05;;;;;;;;;;;20.50;86.00;;;;;;5024769;28;19925;-74
2023/09/13 08:23:40;;;;;;;;;;;20.40;86.00;;;;;;5024554;28;19937;-72
2023/09/13 08:26:13;;;;;;;;;;;20.50;86.00;;;;;;5025052;28;19960;-73
2023/09/13 08:28:46;;;;;;;;;;;20.60;86.00;;;;;;5025143;28;19980;-73
2023/09/13 08:31:23;;;;;;;;;;;20.60;85.60;;;;;;5025417;28;20023;-74
2023/09/13 08:33:56;;;;;;;;;;;20.70;85.80;;;;;;5024626;28;19936;-74
2023/09/13 08:36:29;;;;;;;;;;;20.80;85.60;;;;;;5023986;28;19929;-72
2023/09/13 08:39:05;;;;;;;;;;;20.80;85.30;;;;;;5025697;28;19929;-74
2023/09/13 08:41:37;;;;;;;;;;;21.00;85.30;;;;;;5023545;28;20491;-74
2023/09/13 08:44:11;;;;;;;;;;;21.10;85.00;;;;;;5024885;28;20372;-73
2023/09/13 08:46:45;;;;;;;;;;;21.10;84.70;;;;;;5024197;28;19929;-73
2023/09/13 08:49:18;;;;;;;;;;;21.10;84.80;;;;;;5023586;28;19929;-73
2023/09/13 08:51:52;;;;;;;;;;;21.10;84.60;;;;;;5023021;28;20404;-73
2023/09/13 08:54:27;;;;;;;;;;;21.20;84.60;;;;;;5024980;28;20435;-73
2023/09/13 08:57:02;;;;;;;;;;;21.20;84.30;;;;;;5025122;28;19975;-72
2023/09/13 08:59:35;;;;;;;;;;;21.20;84.00;;;;;;5023879;28;19928;-72
2023/09/13 09:02:12;;;;;;;;;;;21.20;84.10;;;;;;5024560;28;19929;-72
2023/09/13 09:04:46;;;;;;;;;;;21.30;83.90;;;;;;5023761;28;19940;-73
2023/09/13 09:07:20;;;;;;;;;;;21.20;84.00;;;;;;5023250;28;19929;-73
2023/09/13 09:09:55;;;;;;;;;;;21.20;84.10;;;;;;5021550;28;19990;-72
2023/09/13 09:12:29;;;;;;;;;;;21.20;83.70;;;;;;5023889;28;20365;-72
2023/09/13 09:15:02;;;;;;;;;;;21.10;84.00;;;;;;5023818;28;20381;-73
2023/09/13 09:17:36;;;;;;;;;;;21.00;84.20;;;;;;5022682;28;20019;-72
2023/09/13 09:20:09;;;;;;;;;;;20.90;84.50;;;;;;5023604;28;19936;-73
2023/09/13 09:22:42;;;;;;;;;;;20.80;84.60;;;;;;5024101;28;20407;-70
2023/09/13 09:25:18;;;;;;;;;;;20.80;84.70;;;;;;5024903;28;20350;-71
2023/09/13 09:27:52;;;;;;;;;;;20.90;84.60;;;;;;5024524;28;19936;-70
2023/09/13 09:30:29;;;;;;;;;;;21.00;84.50;;;;;;5009002;28;19934;-70
2023/09/13 09:33:03;;;;;;;;;;;21.10;84.30;;;;;;5023149;28;19925;-70
2023/09/13 09:35:36;;;;;;;;;;;21.10;84.20;;;;;;5023096;28;19933;-70
2023/09/13 09:38:04;;;;;;;;;;;21.10;84.20;;;;;;5021739;28;20303;-71
2023/09/13 09:40:38;;;;;;;;;;;21.20;84.30;;;;;;5024060;28;20023;-71
2023/09/13 09:43:11;;;;;;;;;;;21.20;84.20;;;;;;5024218;28;19937;-70
2023/09/13 09:45:44;;;;;;;;;;;21.20;83.90;;;;;;5022491;28;19999;-70
2023/09/13 09:48:18;;;;;;;;;;;21.20;84.10;;;;;;5023867;28;19963;-70
2023/09/13 09:50:53;;;;;;;;;;;21.20;84.30;;;;;;5022648;28;20394;-70
2023/09/13 09:53:25;;;;;;;;;;;21.20;84.20;;;;;;5023036;28;19929;-70
2023/09/13 09:56:00;;;;;;;;;;;21.30;84.20;;;;;;5023713;28;20334;-71
2023/09/13 09:58:34;;;;;;;;;;;21.30;84.10;;;;;;5022667;28;20368;-70
2023/09/13 10:01:08;;;;;;;;;;;21.40;84.30;;;;;;5027720;28;19925;-70
2023/09/13 10:03:40;;;;;;;;;;;21.30;84.20;;;;;;5020577;28;20020;-70
2023/09/13 10:06:14;;;;;;;;;;;21.40;84.20;;;;;;5008484;28;20339;-70
2023/09/13 10:08:49;;;;;;;;;;;21.50;84.10;;;;;;5021914;28;19932;-72
2023/09/13 10:11:24;;;;;;;;;;;21.40;84.30;;;;;;5020409;28;19929;-74
2023/09/13 10:13:57;;;;;;;;;;;21.30;84.20;;;;;;5025216;28;19929;-72
2023/09/13 10:16:32;;;;;;;;;;;21.30;84.20;;;;;;5023743;28;20011;-72
2023/09/13 10:19:06;;;;;;;;;;;21.30;84.40;;;;;;5026230;28;19971;-72
2023/09/13 10:21:39;;;;;;;;;;;21.40;84.20;;;;;;5025137;28;19947;-72
2023/09/13 10:24:14;;;;;;;;;;;21.40;83.90;;;;;;5023299;28;19951;-72
2023/09/13 10:26:51;;;;;;;;;;;21.40;83.90;;;;;;5023303;28;19925;-73
2023/09/13 10:29:25;;;;;;;;;;;21.50;83.90;;;;;;5024746;28;20307;-72
2023/09/13 10:32:01;;;;;;;;;;;21.50;83.90;;;;;;5022313;28;19936;-72
2023/09/13 10:34:35;;;;;;;;;;;21.50;83.70;;;;;;5024546;28;19925;-72
2023/09/13 10:37:12;;;;;;;;;;;21.50;83.70;;;;;;5023390;28;19925;-74
2023/09/13 10:39:48;;;;;;;;;;;21.50;83.80;;;;;;5024877;28;19965;-72
2023/09/13 10:42:22;;;;;;;;;;;21.60;83.60;;;;;;5023572;28;19925;-73
2023/09/13 10:44:56;;;;;;;;;;;21.60;83.60;;;;;;5024061;28;19977;-72
2023/09/13 10:47:30;;;;;;;;;;;21.70;83.40;;;;;;5022100;28;19932;-72
2023/09/13 10:50:03;;;;;;;;;;;21.60;83.20;;;;;;5024040;28;19947;-73
2023/09/13 10:52:37;;;;;;;;;;;21.60;83.20;;;;;;5022962;28;19933;-71
2023/09/13 10:55:11;;;;;;;;;;;21.60;83.40;;;;;;5022036;28;19925;-73
2023/09/13 10:57:46;;;;;;;;;;;21.60;83.30;;;;;;5022847;28;19960;-73
2023/09/13 11:00:20;;;;;;;;;;;21.60;83.40;;;;;;5023382;28;20003;-73
2023/09/13 11:02:53;;;;;;;;;;;21.60;83.60;;;;;;5022984;28;19951;-73
2023/09/13 11:05:27;;;;;;;;;;;21.60;83.70;;;;;;5021065;28;20012;-74
2023/09/13 11:07:54;;;;;;;;;;;21.60;83.90;;;;;;5023326;28;19925;-72
2023/09/13 11:10:31;;;;;;;;;;;21.60;83.70;;;;;;5022516;28;20387;-73
2023/09/13 11:13:14;;;;;;;;;;;21.50;83.70;;;;;;5024288;28;19929;-73
2023/09/13 11:15:49;;;;;;;;;;;21.50;84.00;;;;;;5022194;28;19933;-74
2023/09/13 11:18:26;;;;;;;;;;;21.40;84.00;;;;;;5031689;28;19933;-72
2023/09/13 11:20:59;;;;;;;;;;;21.30;84.40;;;;;;5028306;28;19929;-73
2023/09/13 11:23:42;;;;;;;;;;;21.20;84.60;;;;;;5022289;28;19929;-72
2023/09/13 11:26:16;;;;;;;;;;;21.10;84.80;;;;;;5022528;28;19929;-71
2023/09/13 11:28:50;;;;;;;;;;;21.10;84.90;;;;;;5016269;28;19925;-72
2023/09/13 11:31:23;;;;;;;;;;;21.20;84.90;;;;;;5021079;28;19979;-72
2023/09/13 11:33:58;;;;;;;;;;;21.30;84.60;;;;;;5022497;28;19926;-72
2023/09/13 11:36:32;;;;;;;;;;;21.30;84.60;;;;;;5023112;28;19953;-71
2023/09/13 11:39:05;;;;;;;;;;;21.30;84.40;;;;;;5024038;28;19933;-72
2023/09/13 11:41:39;;;;;;;;;;;21.30;84.00;;;;;;5023720;28;19971;-72
2023/09/13 11:44:14;;;;;;;;;;;21.40;84.10;;;;;;5007359;28;20292;-72
2023/09/13 11:46:48;;;;;;;;;;;21.40;84.00;;;;;;5026204;28;19925;-71
2023/09/13 11:49:23;;;;;;;;;;;21.50;84.00;;;;;;5027065;28;20311;-71
2023/09/13 11:51:57;;;;;;;;;;;21.60;83.90;;;;;;5025970;28;19936;-73
2023/09/13 11:54:29;;;;;;;;;;;21.90;83.80;;;;;;5025904;28;19932;-71
2023/09/13 11:57:04;;;;;;;;;;;22.10;83.60;;;;;;5024698;28;20032;-72
2023/09/13 11:59:38;;;;;;;;;;;22.20;83.10;;;;;;5021386;28;19957;-71
2023/09/13 12:02:12;;;;;;;;;;;22.30;83.00;;;;;;5023194;28;20036;-72
2023/09/13 12:04:45;;;;;;;;;;;22.40;82.50;;;;;;5026135;28;19999;-72
2023/09/13 12:07:19;;;;;;;;;;;22.50;82.30;;;;;;5026889;28;20031;-73
2023/09/13 12:09:56;;;;;;;;;;;22.60;81.90;;;;;;5026108;28;19929;-72
2023/09/13 12:12:29;;;;;;;;;;;22.60;81.80;;;;;;5024971;28;19983;-72
2023/09/13 12:15:05;;;;;;;;;;;22.70;81.50;;;;;;5026558;28;19929;-72
2023/09/13 12:17:38;;;;;;;;;;;22.80;81.30;;;;;;5018715;28;19944;-72
2023/09/13 12:20:11;;;;;;;;;;;22.90;81.30;;;;;;5025267;28;20008;-73
2023/09/13 12:22:44;;;;;;;;;;;22.90;80.90;;;;;;5022173;28;19948;-71
2023/09/13 12:25:18;;;;;;;;;;;22.90;80.80;;;;;;5026138;28;19951;-72
2023/09/13 12:27:51;;;;;;;;;;;22.90;80.90;;;;;;5018774;28;19925;-71
2023/09/13 12:30:19;;;;;;;;;;;22.80;81.30;;;;;;5024878;28;19926;-72
2023/09/13 12:32:52;;;;;;;;;;;22.90;80.90;;;;;;5024082;28;19925;-68
2023/09/13 12:35:25;;;;;;;;;;;22.90;80.80;;;;;;5025547;28;20017;-68
2023/09/13 12:37:59;;;;;;;;;;;22.90;80.60;;;;;;5017728;28;19938;-66
2023/09/13 12:40:32;;;;;;;;;;;23.00;80.50;;;;;;5024386;28;19929;-67
2023/09/13 12:43:05;;;;;;;;;;;23.10;80.30;;;;;;5025678;28;19995;-67
2023/09/13 12:45:40;;;;;;;;;;;23.20;79.70;;;;;;5024497;28;20036;-67
2023/09/13 12:48:14;;;;;;;;;;;23.30;79.10;;;;;;5025121;28;19929;-67
2023/09/13 12:50:47;;;;;;;;;;;23.40;78.70;;;;;;5025198;28;20282;-67
2023/09/13 12:53:21;;;;;;;;;;;23.40;78.50;;;;;;5017472;28;19994;-67
2023/09/13 12:56:01;;;;;;;;;;;23.40;78.50;;;;;;5015188;28;19933;-67
2023/09/13 12:58:46;;;;;;;;;;;23.40;78.30;;;;;;5024276;28;19929;-67
2023/09/13 13:01:20;;;;;;;;;;;23.50;77.20;;;;;;5024643;28;19936;-66
2023/09/13 13:03:58;;;;;;;;;;;23.50;76.50;;;;;;5011952;28;19932;-67
2023/09/13 13:06:36;;;;;;;;;;;23.50;76.50;;;;;;5024379;28;19929;-67
2023/09/13 13:09:09;;;;;;;;;;;23.50;76.30;;;;;;5022393;28;19991;-68
2023/09/13 13:11:43;;;;;;;;;;;23.50;76.70;;;;;;5023348;28;19925;-67
2023/09/13 13:14:17;;;;;;;;;;;23.50;76.90;;;;;;5024083;28;20438;-67
2023/09/13 13:16:51;;;;;;;;;;;23.40;76.50;;;;;;5023621;28;19933;-67
2023/09/13 13:19:31;;;;;;;;;;;23.40;75.40;;;;;;5025049;28;19929;-66
2023/09/13 13:22:11;;;;;;;;;;;23.40;75.90;;;;;;5026141;28;19936;-66
2023/09/13 13:24:45;;;;;;;;;;;23.30;75.90;;;;;;5025179;28;19945;-68
2023/09/13 13:27:18;;;;;;;;;;;23.30;75.20;;;;;;5026094;28;19948;-67
2023/09/13 13:29:52;;;;;;;;;;;23.20;74.60;;;;;;5021431;28;19933;-68
2023/09/13 13:32:26;;;;;;;;;;;23.20;73.60;;;;;;5023708;28;20012;-67
2023/09/13 13:35:03;;;;;;;;;;;23.10;74.10;;;;;;5024438;28;19964;-67
2023/09/13 13:37:43;;;;;;;;;;;23.00;74.40;;;;;;5022004;28;20391;-68
2023/09/13 13:40:17;;;;;;;;;;;23.00;74.60;;;;;;5023502;28;20368;-67
2023/09/13 13:42:50;;;;;;;;;;;23.00;75.10;;;;;;5022965;28;20383;-67
2023/09/13 13:45:23;;;;;;;;;;;23.00;74.60;;;;;;5017853;28;20399;-67
2023/09/13 13:47:57;;;;;;;;;;;23.10;74.90;;;;;;5023117;28;19999;-67
2023/09/13 13:50:31;;;;;;;;;;;23.10;74.20;;;;;;5024639;28;19929;-67
2023/09/13 13:53:05;;;;;;;;;;;23.10;73.10;;;;;;5026555;28;19925;-67
2023/09/13 13:55:39;;;;;;;;;;;23.10;73.90;;;;;;5025159;28;19947;-67
2023/09/13 13:58:12;;;;;;;;;;;23.10;72.90;;;;;;5022533;28;20346;-67
2023/09/13 14:00:45;;;;;;;;;;;23.10;71.20;;;;;;5024548;28;19972;-66
2023/09/13 14:03:19;;;;;;;;;;;23.10;70.50;;;;;;5024497;28;20381;-68
2023/09/13 14:05:53;;;;;;;;;;;23.10;71.30;;;;;;5022939;28;19925;-66
2023/09/13 14:08:27;;;;;;;;;;;23.10;71.40;;;;;;5024977;28;19971;-67
2023/09/13 14:11:00;;;;;;;;;;;23.10;72.40;;;;;;5023844;28;19935;-68
2023/09/13 14:13:27;;;;;;;;;;;23.10;72.70;;;;;;5024306;28;20376;-68
2023/09/13 14:16:01;;;;;;;;;;;23.10;72.40;;;;;;5023845;28;20024;-68
2023/09/13 14:18:35;;;;;;;;;;;23.20;71.70;;;;;;5019857;28;19954;-67
2023/09/13 14:21:09;;;;;;;;;;;23.30;72.20;;;;;;5023067;28;19956;-68
2023/09/13 14:23:42;;;;;;;;;;;23.20;72.10;;;;;;5026281;28;19951;-68
2023/09/13 14:26:15;;;;;;;;;;;23.30;72.40;;;;;;5023934;28;19936;-67
2023/09/13 14:28:48;;;;;;;;;;;23.40;72.00;;;;;;5019269;28;19944;-68
2023/09/13 14:31:21;;;;;;;;;;;23.40;71.10;;;;;;5023391;28;19933;-68
2023/09/13 14:33:56;;;;;;;;;;;23.50;71.80;;;;;;5022501;28;20384;-68
2023/09/13 14:36:29;;;;;;;;;;;23.50;71.40;;;;;;5022434;28;19977;-68
2023/09/13 14:39:02;;;;;;;;;;;23.50;71.70;;;;;;5022708;28;19980;-66
2023/09/13 14:41:36;;;;;;;;;;;23.50;71.10;;;;;;5022465;28;19940;-67
2023/09/13 14:44:09;;;;;;;;;;;23.50;70.90;;;;;;5022814;28;19987;-68
2023/09/13 14:46:48;;;;;;;;;;;23.50;71.60;;;;;;5023820;28;20016;-66
2023/09/13 14:49:23;;;;;;;;;;;23.50;71.00;;;;;;5022984;28;19929;-66
2023/09/13 14:51:56;;;;;;;;;;;23.50;71.10;;;;;;5018534;28;19935;-73
2023/09/13 14:54:29;;;;;;;;;;;23.50;70.40;;;;;;5024591;28;19929;-72